Time;durP1;ratioP1;P1;durP2;ratioP2;P2;SDS_P1;SDS_P2;PMS_P1;PMS_P2;Temp;Humidity;BMP_temperature;BMP_pressure;BME280_temperature;BME280_humidity;BME280_pressure;Samples;Min_cycle;Max_cycle;Signal;HPM_P1;HPM_P2
2023/12/23 00:00:55;;;;;;;7.00;2.50;;;;;;;1.28;63.42;97121.73;130552;1261;107757;-81
2023/12/23 00:04:21;;;;;;;7.40;2.60;;;;;;;1.21;63.46;97124.95;130628;1257;110190;-80
2023/12/23 00:07:26;;;;;;;7.90;2.60;;;;;;;1.17;63.78;97131.34;130756;1257;106294;-80
2023/12/23 00:10:32;;;;;;;7.50;2.30;;;;;;;1.15;63.87;97132.58;130541;1262;107664;-80
2023/12/23 00:13:37;;;;;;;8.20;2.80;;;;;;;1.17;64.12;97136.43;130349;1264;108713;-79
2023/12/23 00:16:43;;;;;;;8.90;3.20;;;;;;;1.21;64.20;97139.44;130487;1263;107379;-80
2023/12/23 00:19:49;;;;;;;7.20;2.20;;;;;;;1.19;64.15;97144.11;130489;1257;107655;-83
2023/12/23 00:22:55;;;;;;;7.10;2.10;;;;;;;1.16;63.95;97144.43;130525;1261;107570;-80
2023/12/23 00:26:01;;;;;;;10.60;2.50;;;;;;;1.15;63.71;97141.75;130307;1261;109580;-78
2023/12/23 00:29:07;;;;;;;8.00;2.40;;;;;;;1.13;63.61;97150.20;130397;1264;106613;-79
2023/12/23 00:32:13;;;;;;;4.90;2.20;;;;;;;1.13;63.56;97145.48;130618;1257;108394;-79
2023/12/23 00:35:18;;;;;;;8.70;2.30;;;;;;;1.13;63.29;97148.48;130472;1262;108664;-81
2023/12/23 00:38:24;;;;;;;5.00;1.70;;;;;;;1.12;63.73;97154.13;130268;1263;109610;-80
2023/12/23 00:41:29;;;;;;;6.90;1.90;;;;;;;1.16;63.37;97165.20;130387;1263;108665;-81
2023/12/23 00:44:35;;;;;;;7.70;2.40;;;;;;;1.20;63.46;97169.12;130587;1263;108431;-81
2023/12/23 00:47:41;;;;;;;5.30;1.80;;;;;;;1.21;63.28;97175.08;130723;1257;105659;-81
2023/12/23 00:50:46;;;;;;;7.00;2.10;;;;;;;1.20;63.48;97180.98;130499;1269;108669;-81
2023/12/23 00:53:51;;;;;;;5.10;1.70;;;;;;;1.20;63.13;97188.19;130597;1261;107542;-81
2023/12/23 00:56:57;;;;;;;6.90;2.10;;;;;;;1.21;63.52;97194.88;130443;1257;108343;-81
2023/12/23 01:00:03;;;;;;;7.20;1.80;;;;;;;1.24;63.63;97191.27;130539;1261;107955;-80
2023/12/23 01:03:09;;;;;;;6.20;1.80;;;;;;;1.24;63.07;97182.38;130423;1263;107621;-80
2023/12/23 01:06:15;;;;;;;7.60;1.90;;;;;;;1.22;63.05;97186.91;130492;1270;106700;-80
2023/12/23 01:09:21;;;;;;;6.30;2.10;;;;;;;1.20;63.40;97189.90;130531;1258;107648;-80
2023/12/23 01:12:26;;;;;;;9.20;2.50;;;;;;;1.15;63.48;97187.05;130568;1273;107323;-81
2023/12/23 01:15:32;;;;;;;7.90;1.30;;;;;;;1.11;63.33;97194.54;130464;1257;107917;-81
2023/12/23 01:18:37;;;;;;;9.60;2.50;;;;;;;1.09;63.36;97201.84;130453;1258;107667;-80
2023/12/23 01:21:43;;;;;;;5.80;1.90;;;;;;;1.04;63.08;97201.17;130440;1258;106481;-80
2023/12/23 01:24:48;;;;;;;7.20;2.10;;;;;;;1.02;63.20;97207.08;130527;1263;107704;-80
2023/12/23 01:27:54;;;;;;;6.30;1.40;;;;;;;1.02;63.17;97204.10;130434;1273;108182;-80
2023/12/23 01:30:59;;;;;;;5.10;1.60;;;;;;;1.03;63.08;97205.08;130419;1257;107412;-79
2023/12/23 01:34:05;;;;;;;5.70;1.80;;;;;;;1.02;63.09;97225.89;130463;1258;107697;-81
2023/12/23 01:37:10;;;;;;;7.50;1.70;;;;;;;1.01;63.32;97222.45;130452;1262;106564;-81
2023/12/23 01:40:16;;;;;;;4.70;1.40;;;;;;;1.05;63.22;97224.34;130437;1261;108429;-80
2023/12/23 01:43:22;;;;;;;8.10;1.40;;;;;;;1.05;63.15;97236.91;130477;1263;108492;-81
2023/12/23 01:46:28;;;;;;;5.90;1.40;;;;;;;1.01;62.91;97236.23;130478;1262;107659;-80
2023/12/23 01:49:34;;;;;;;3.60;1.50;;;;;;;1.00;63.16;97245.34;130629;1258;108930;-81
2023/12/23 01:52:40;;;;;;;3.80;1.30;;;;;;;1.00;63.29;97247.74;130496;1262;107587;-80
2023/12/23 01:55:46;;;;;;;5.80;1.70;;;;;;;1.02;63.29;97248.30;130541;1261;108738;-80
2023/12/23 01:58:52;;;;;;;5.90;1.50;;;;;;;0.99;63.15;97250.34;130463;1258;108482;-81
2023/12/23 02:01:57;;;;;;;7.60;1.10;;;;;;;1.00;63.58;97250.07;130537;1261;107485;-80
2023/12/23 02:05:03;;;;;;;4.90;1.70;;;;;;;0.99;63.25;97251.52;130515;1263;108718;-81
2023/12/23 02:08:09;;;;;;;3.80;1.30;;;;;;;1.02;63.81;97254.38;130487;1262;107695;-82
2023/12/23 02:11:22;;;;;;;5.30;2.00;;;;;;;1.05;63.71;97250.33;130493;1258;108708;-81
2023/12/23 02:14:36;;;;;;;7.40;1.90;;;;;;;1.06;63.72;97249.55;130606;1262;106745;-80
2023/12/23 02:17:44;;;;;;;4.40;1.20;;;;;;;1.04;63.52;97255.52;130594;1259;107675;-81
2023/12/23 02:20:51;;;;;;;6.50;1.20;;;;;;;1.04;63.65;97264.52;130627;1264;108721;-81
2023/12/23 02:23:56;;;;;;;5.70;1.30;;;;;;;0.99;63.48;97266.10;130591;1262;108662;-81
2023/12/23 02:27:08;;;;;;;6.00;1.30;;;;;;;0.96;63.56;97264.29;130625;1264;107775;-80
2023/12/23 02:30:16;;;;;;;5.40;1.30;;;;;;;0.91;63.62;97270.73;130531;1273;107769;-80
2023/12/23 02:33:23;;;;;;;6.80;1.30;;;;;;;0.91;63.90;97277.39;130800;1261;106311;-81
2023/12/23 02:36:29;;;;;;;4.60;1.40;;;;;;;0.93;63.70;97281.36;130709;1262;108367;-81
2023/12/23 02:39:34;;;;;;;6.90;1.40;;;;;;;0.95;63.99;97291.67;130609;1257;108568;-81
2023/12/23 02:42:40;;;;;;;4.50;1.10;;;;;;;0.98;64.09;97284.54;130517;1264;108620;-82
2023/12/23 02:45:45;;;;;;;6.10;1.50;;;;;;;1.01;64.11;97288.77;130574;1260;108125;-81
2023/12/23 02:48:51;;;;;;;4.70;1.00;;;;;;;1.03;64.18;97291.40;130773;1262;107655;-81
2023/12/23 02:51:56;;;;;;;5.50;1.30;;;;;;;1.04;64.15;97301.44;130658;1261;107805;-82
2023/12/23 02:55:03;;;;;;;3.00;1.40;;;;;;;0.99;64.11;97308.42;130707;1257;106810;-81
2023/12/23 02:58:11;;;;;;;4.10;1.10;;;;;;;0.93;64.18;97310.99;130643;1257;108565;-81
2023/12/23 03:01:19;;;;;;;4.80;1.40;;;;;;;0.85;64.45;97306.25;130567;1257;106169;-81
2023/12/23 03:04:25;;;;;;;4.60;1.50;;;;;;;0.82;64.60;97319.03;130663;1259;107025;-81
2023/12/23 03:07:30;;;;;;;5.90;1.20;;;;;;;0.82;64.74;97321.13;130577;1260;107771;-80
2023/12/23 03:10:36;;;;;;;5.60;1.00;;;;;;;0.78;64.96;97330.38;130626;1257;107919;-81
2023/12/23 03:13:42;;;;;;;5.70;1.20;;;;;;;0.77;64.86;97327.86;130705;1262;108470;-81
2023/12/23 03:16:47;;;;;;;4.80;1.40;;;;;;;0.77;64.95;97338.19;130477;1258;107553;-80
2023/12/23 03:19:53;;;;;;;3.90;1.40;;;;;;;0.77;64.92;97341.01;130499;1257;107139;-80
2023/12/23 03:22:59;;;;;;;4.60;1.20;;;;;;;0.73;64.97;97336.61;130279;1257;107834;-81
2023/12/23 03:26:04;;;;;;;7.10;1.70;;;;;;;0.68;65.02;97346.57;130497;1264;106752;-81
2023/12/23 03:29:10;;;;;;;5.00;1.10;;;;;;;0.64;65.25;97342.76;130529;1264;106558;-80
2023/12/23 03:32:17;;;;;;;3.80;1.10;;;;;;;0.56;65.36;97354.77;130489;1264;107715;-81
2023/12/23 03:35:22;;;;;;;3.30;1.20;;;;;;;0.49;65.43;97362.02;130500;1263;107587;-80
2023/12/23 03:38:28;;;;;;;3.00;1.00;;;;;;;0.45;65.51;97376.96;130504;1264;108518;-80
2023/12/23 03:41:33;;;;;;;3.60;1.60;;;;;;;0.42;65.65;97376.87;130536;1262;107292;-80
2023/12/23 03:44:39;;;;;;;4.40;1.10;;;;;;;0.41;65.54;97389.41;130387;1262;107153;-80
2023/12/23 03:47:44;;;;;;;4.90;1.30;;;;;;;0.37;65.61;97394.88;130529;1262;107737;-80
2023/12/23 03:50:50;;;;;;;3.80;1.20;;;;;;;0.32;65.79;97397.15;130559;1269;108677;-81
2023/12/23 03:53:55;;;;;;;6.20;1.40;;;;;;;0.30;65.99;97410.05;130549;1257;106495;-80
2023/12/23 03:57:01;;;;;;;3.40;1.00;;;;;;;0.29;65.84;97414.39;130583;1262;108666;-79
2023/12/23 04:00:09;;;;;;;4.50;1.10;;;;;;;0.29;65.97;97418.29;130492;1258;108627;-81
2023/12/23 04:03:20;;;;;;;5.50;1.30;;;;;;;0.30;65.89;97417.08;130469;1261;108577;-81
2023/12/23 04:06:28;;;;;;;4.90;1.50;;;;;;;0.30;66.05;97415.30;130531;1262;107559;-80
2023/12/23 04:09:34;;;;;;;6.70;1.10;;;;;;;0.29;66.07;97438.15;130328;1257;109152;-79
2023/12/23 04:12:40;;;;;;;4.10;1.20;;;;;;;0.22;66.18;97441.49;130394;1261;108589;-81
2023/12/23 04:15:45;;;;;;;7.10;1.50;;;;;;;0.19;66.32;97452.89;130334;1274;109342;-79
2023/12/23 04:18:51;;;;;;;4.50;1.00;;;;;;;0.13;66.57;97450.30;130361;1263;107748;-81
2023/12/23 04:21:59;;;;;;;4.80;1.30;;;;;;;0.06;66.84;97458.36;130560;1261;107419;-81
2023/12/23 04:25:05;;;;;;;3.60;1.10;;;;;;;0.01;66.88;97448.80;130638;1261;106962;-80
2023/12/23 04:28:11;;;;;;;7.00;0.90;;;;;;;-0.03;67.24;97461.89;130569;1257;105802;-81
2023/12/23 04:31:17;;;;;;;3.40;1.50;;;;;;;-0.05;67.16;97451.43;130592;1261;107022;-81
2023/12/23 04:34:23;;;;;;;2.70;0.80;;;;;;;-0.01;67.12;97459.08;130519;1269;107719;-79
2023/12/23 04:37:29;;;;;;;6.60;1.50;;;;;;;0.01;67.34;97456.67;130358;1258;108728;-81
2023/12/23 04:40:34;;;;;;;4.10;1.00;;;;;;;0.01;67.28;97462.05;130323;1261;106707;-80
2023/12/23 04:43:40;;;;;;;2.30;0.80;;;;;;;-0.00;67.19;97468.61;130545;1257;107768;-81
2023/12/23 04:46:48;;;;;;;2.80;0.90;;;;;;;0.02;67.07;97482.20;130537;1258;107680;-80
2023/12/23 04:49:54;;;;;;;7.50;1.30;;;;;;;0.03;67.08;97489.05;130391;1257;108474;-82
2023/12/23 04:53:00;;;;;;;3.80;0.90;;;;;;;-0.02;67.23;97484.67;130325;1263;108650;-81
2023/12/23 04:56:07;;;;;;;23.50;10.20;;;;;;;-0.06;67.18;97498.14;130365;1263;107410;-80
2023/12/23 04:59:12;;;;;;;26.80;11.10;;;;;;;-0.06;67.22;97504.83;130677;1261;108746;-80
2023/12/23 05:02:18;;;;;;;13.60;4.60;;;;;;;-0.08;67.13;97504.65;130520;1263;107619;-81
2023/12/23 05:05:24;;;;;;;6.40;1.70;;;;;;;-0.10;67.32;97512.71;130352;1257;106661;-80
2023/12/23 05:08:30;;;;;;;72.70;25.80;;;;;;;-0.13;67.43;97519.51;130579;1259;106881;-82
2023/12/23 05:11:35;;;;;;;19.10;6.10;;;;;;;-0.14;67.30;97516.69;130515;1258;108356;-80
2023/12/23 05:14:41;;;;;;;9.40;3.10;;;;;;;-0.14;67.34;97526.13;130438;1261;107741;-80
2023/12/23 05:17:46;;;;;;;13.50;6.40;;;;;;;-0.14;67.37;97532.59;130537;1257;106652;-80
2023/12/23 05:20:52;;;;;;;9.00;3.70;;;;;;;-0.15;67.59;97540.15;130518;1262;108676;-81
2023/12/23 05:23:57;;;;;;;11.00;3.30;;;;;;;-0.16;67.65;97551.11;130431;1263;108675;-80
2023/12/23 05:27:04;;;;;;;7.70;1.60;;;;;;;-0.18;67.68;97552.89;130439;1258;108730;-81
2023/12/23 05:30:12;;;;;;;6.70;1.70;;;;;;;-0.16;67.86;97563.67;130245;1259;107527;-81
2023/12/23 05:33:19;;;;;;;4.20;1.30;;;;;;;-0.12;67.88;97568.89;130506;1261;108659;-81
2023/12/23 05:36:25;;;;;;;9.60;3.10;;;;;;;-0.11;67.69;97566.61;130472;1262;107815;-78
2023/12/23 05:39:31;;;;;;;8.30;1.90;;;;;;;-0.08;67.75;97584.56;130455;1258;108367;-81
2023/12/23 05:42:36;;;;;;;11.20;4.60;;;;;;;-0.10;67.55;97582.31;130490;1262;107556;-80
2023/12/23 05:45:42;;;;;;;15.40;4.70;;;;;;;-0.11;67.63;97588.66;130653;1262;108684;-80
2023/12/23 05:48:47;;;;;;;12.60;3.60;;;;;;;-0.10;67.71;97587.20;130528;1264;107599;-80
2023/12/23 05:51:54;;;;;;;6.10;2.40;;;;;;;-0.09;67.71;97596.86;130534;1258;106886;-81
2023/12/23 05:54:59;;;;;;;6.30;1.80;;;;;;;-0.12;67.77;97603.95;130544;1257;108738;-80
2023/12/23 05:58:05;;;;;;;11.20;5.70;;;;;;;-0.16;67.86;97608.23;130474;1258;106653;-81
2023/12/23 06:01:11;;;;;;;3.10;1.30;;;;;;;-0.18;67.87;97613.80;130541;1258;106266;-80
2023/12/23 06:04:17;;;;;;;9.40;3.30;;;;;;;-0.20;67.83;97613.70;130611;1262;106152;-80
2023/12/23 06:07:22;;;;;;;8.60;3.20;;;;;;;-0.22;67.97;97614.41;130500;1262;107050;-80
2023/12/23 06:10:28;;;;;;;5.40;1.60;;;;;;;-0.25;68.01;97611.59;130503;1262;107462;-80
2023/12/23 06:13:34;;;;;;;7.10;3.00;;;;;;;-0.28;68.22;97610.95;130414;1258;106587;-80
2023/12/23 06:16:41;;;;;;;8.00;2.90;;;;;;;-0.27;68.21;97625.23;130397;1262;107257;-81
2023/12/23 06:19:47;;;;;;;15.80;7.00;;;;;;;-0.24;67.98;97621.08;130651;1258;107764;-81
2023/12/23 06:22:53;;;;;;;5.10;1.40;;;;;;;-0.17;68.05;97630.70;130477;1261;107450;-82
2023/12/23 06:25:59;;;;;;;13.60;5.40;;;;;;;-0.08;67.91;97638.52;130598;1262;106934;-80
2023/12/23 06:29:07;;;;;;;9.80;3.10;;;;;;;0.02;67.70;97642.80;130587;1258;107849;-80
2023/12/23 06:32:13;;;;;;;7.70;1.90;;;;;;;0.05;67.51;97664.72;130633;1257;108416;-80
2023/12/23 06:35:20;;;;;;;8.10;1.80;;;;;;;0.04;67.71;97660.97;130531;1263;107724;-79
2023/12/23 06:38:25;;;;;;;6.30;2.30;;;;;;;0.03;67.77;97661.96;130539;1261;107266;-80
2023/12/23 06:41:31;;;;;;;59.10;18.50;;;;;;;0.03;67.90;97664.70;130571;1259;106311;-81
2023/12/23 06:44:37;;;;;;;56.70;17.00;;;;;;;-0.02;67.92;97679.20;130580;1261;107630;-81
2023/12/23 06:47:42;;;;;;;13.60;3.70;;;;;;;-0.04;68.20;97687.07;130675;1261;107011;-80
2023/12/23 06:50:48;;;;;;;58.40;18.50;;;;;;;-0.06;68.21;97688.63;130682;1261;108531;-80
2023/12/23 06:53:53;;;;;;;48.60;16.20;;;;;;;-0.04;68.02;97691.83;130616;1262;106411;-81
2023/12/23 06:56:59;;;;;;;68.70;32.00;;;;;;;-0.02;68.06;97690.31;130698;1257;107981;-77
2023/12/23 07:00:06;;;;;;;48.00;20.20;;;;;;;0.00;68.02;97694.56;130561;1257;108686;-80
2023/12/23 07:03:11;;;;;;;15.00;6.60;;;;;;;0.01;68.09;97689.89;130828;1261;108186;-80
2023/12/23 07:06:22;;;;;;;12.30;5.00;;;;;;;0.02;68.03;97689.00;130666;1258;107536;-80
2023/12/23 07:09:27;;;;;;;10.10;2.80;;;;;;;0.00;67.81;97692.08;130593;1264;106311;-80
2023/12/23 07:12:33;;;;;;;9.70;3.80;;;;;;;-0.01;67.79;97694.26;130623;1264;108689;-79
2023/12/23 07:15:38;;;;;;;7.70;3.00;;;;;;;-0.02;67.73;97701.59;130676;1259;106524;-80
2023/12/23 07:18:44;;;;;;;25.70;10.40;;;;;;;-0.02;67.69;97707.86;130496;1262;106871;-80
2023/12/23 07:21:53;;;;;;;19.70;7.20;;;;;;;-0.02;67.50;97709.44;130580;1257;105789;-80
2023/12/23 07:24:58;;;;;;;9.90;5.40;;;;;;;0.01;67.45;97708.29;130465;1259;107686;-80
2023/12/23 07:28:04;;;;;;;7.90;3.40;;;;;;;0.05;67.70;97710.39;130441;1261;107724;-81
2023/12/23 07:31:12;;;;;;;15.10;4.80;;;;;;;0.05;67.27;97718.68;130655;1259;106370;-80
2023/12/23 07:34:17;;;;;;;159.10;55.20;;;;;;;0.04;67.15;97722.63;130404;1262;108832;-81
2023/12/23 07:37:23;;;;;;;145.90;55.30;;;;;;;0.09;67.07;97731.80;130440;1258;107097;-81
2023/12/23 07:40:40;;;;;;;48.70;18.20;;;;;;;0.13;66.89;97732.30;130479;1257;108714;-81
2023/12/23 07:43:46;;;;;;;22.60;10.80;;;;;;;0.16;67.06;97732.86;130382;1258;107545;-82
2023/12/23 07:46:51;;;;;;;44.60;21.60;;;;;;;0.19;66.92;97736.72;130323;1258;108498;-79
2023/12/23 07:49:57;;;;;;;21.10;11.10;;;;;;;0.22;66.51;97749.82;130379;1261;107473;-81
2023/12/23 07:53:02;;;;;;;14.70;6.30;;;;;;;0.24;66.83;97741.69;130585;1259;107815;-81
2023/12/23 07:56:09;;;;;;;12.30;3.30;;;;;;;0.29;66.56;97735.08;130525;1261;108870;-81
2023/12/23 07:59:16;;;;;;;9.20;3.20;;;;;;;0.30;66.56;97737.78;130359;1261;108635;-82
2023/12/23 08:02:29;;;;;;;6.50;2.00;;;;;;;0.35;66.58;97730.14;130494;1258;107591;-81
2023/12/23 08:05:35;;;;;;;16.00;7.30;;;;;;;0.42;66.64;97742.27;130477;1261;108084;-80
2023/12/23 08:08:42;;;;;;;20.00;10.50;;;;;;;0.44;66.21;97744.26;130369;1258;107564;-81
2023/12/23 08:11:49;;;;;;;21.50;9.60;;;;;;;0.48;66.49;97743.44;130538;1257;106377;-81
2023/12/23 08:14:57;;;;;;;15.70;7.80;;;;;;;0.50;66.44;97744.11;130528;1261;108671;-81
2023/12/23 08:18:04;;;;;;;75.30;29.80;;;;;;;0.55;66.37;97745.34;130511;1258;108789;-78
2023/12/23 08:21:17;;;;;;;86.60;30.70;;;;;;;0.61;66.44;97742.83;130817;1261;107788;-81
2023/12/23 08:24:23;;;;;;;19.20;5.90;;;;;;;0.69;66.71;97745.71;130466;1260;106465;-87
2023/12/23 08:27:29;;;;;;;120.40;47.10;;;;;;;0.70;66.53;97743.48;130698;1259;108334;-88
2023/12/23 08:30:34;;;;;;;73.90;28.80;;;;;;;0.71;66.71;97741.43;130596;1261;107723;-88
2023/12/23 08:33:39;;;;;;;192.20;75.30;;;;;;;0.67;66.80;97745.65;130943;1257;107547;-91
2023/12/23 08:36:46;;;;;;;212.10;75.60;;;;;;;0.70;67.17;97746.14;130827;1261;108761;-87
2023/12/23 08:39:52;;;;;;;68.40;22.80;;;;;;;0.74;67.29;97737.15;130906;1257;107161;-83
2023/12/23 08:42:57;;;;;;;96.60;37.20;;;;;;;0.77;67.37;97738.16;130434;1258;108379;-89
2023/12/23 08:46:03;;;;;;;98.90;42.00;;;;;;;0.82;67.50;97735.01;130484;1261;106753;-91
2023/12/23 08:49:08;;;;;;;15.90;5.80;;;;;;;0.87;67.23;97744.40;130667;1257;108676;-91
2023/12/23 08:52:14;;;;;;;25.60;13.10;;;;;;;0.94;67.31;97743.72;130927;1257;107439;-89
2023/12/23 08:55:20;;;;;;;12.30;6.20;;;;;;;1.09;67.24;97741.39;130691;1260;106741;-87
2023/12/23 08:58:26;;;;;;;6.50;3.40;;;;;;;1.29;67.12;97740.15;130912;1258;108653;-89
2023/12/23 09:01:31;;;;;;;7.00;3.10;;;;;;;1.42;66.81;97751.52;130654;1258;106647;-91
2023/12/23 09:04:37;;;;;;;10.90;4.50;;;;;;;1.53;66.83;97742.43;130811;1257;106540;-87
2023/12/23 09:07:43;;;;;;;11.70;5.90;;;;;;;1.62;66.66;97744.97;130793;1258;106682;-85
2023/12/23 09:10:48;;;;;;;9.50;3.50;;;;;;;1.65;66.64;97749.29;130601;1261;108517;-90
2023/12/23 09:13:54;;;;;;;6.10;3.80;;;;;;;1.65;66.25;97742.14;130927;1261;106474;-90
2023/12/23 09:17:00;;;;;;;10.80;7.10;;;;;;;1.69;66.36;97742.27;130753;1257;108702;-90
2023/12/23 09:20:07;;;;;;;6.30;3.70;;;;;;;1.79;66.96;97736.33;130771;1257;106785;-85
2023/12/23 09:23:14;;;;;;;9.60;4.50;;;;;;;1.86;66.73;97735.39;130598;1261;106708;-89
2023/12/23 09:26:20;;;;;;;221.00;79.30;;;;;;;1.90;66.29;97732.02;130941;1261;107203;-85
2023/12/23 09:29:25;;;;;;;137.20;49.00;;;;;;;1.89;66.38;97727.23;130612;1261;106802;-84
2023/12/23 09:32:31;;;;;;;21.30;6.70;;;;;;;1.88;65.90;97727.72;130596;1261;107711;-86
2023/12/23 09:35:37;;;;;;;165.80;54.20;;;;;;;1.87;66.10;97729.13;130608;1257;107177;-86
2023/12/23 09:38:42;;;;;;;147.00;50.60;;;;;;;1.92;65.92;97736.92;130590;1259;108670;-85
2023/12/23 09:41:48;;;;;;;160.10;55.00;;;;;;;1.92;65.73;97730.52;130615;1261;106734;-87
2023/12/23 09:44:54;;;;;;;27.70;10.50;;;;;;;1.95;65.46;97737.08;130618;1257;107654;-90
2023/12/23 09:48:00;;;;;;;20.20;7.30;;;;;;;1.95;65.56;97735.20;130577;1261;107019;-88
2023/12/23 09:51:06;;;;;;;95.90;35.10;;;;;;;1.95;65.85;97733.73;130522;1261;106820;-86
2023/12/23 09:54:17;;;;;;;55.70;23.90;;;;;;;2.00;66.03;97735.23;130671;1258;108346;-88
2023/12/23 09:57:23;;;;;;;20.10;7.30;;;;;;;2.09;65.70;97731.77;130706;1261;106960;-87
2023/12/23 10:00:33;;;;;;;14.10;6.60;;;;;;;2.06;65.47;97738.75;130602;1259;108433;-91
2023/12/23 10:03:39;;;;;;;16.10;5.80;;;;;;;2.00;65.44;97742.40;130710;1261;107245;-88
2023/12/23 10:06:45;;;;;;;16.20;7.50;;;;;;;1.96;66.05;97735.96;130580;1257;108780;-87
2023/12/23 10:09:54;;;;;;;9.40;3.30;;;;;;;2.01;65.30;97732.06;130663;1261;108698;-90
2023/12/23 10:13:00;;;;;;;14.60;5.80;;;;;;;2.05;65.75;97738.38;130579;1259;107529;-89
2023/12/23 10:16:08;;;;;;;19.10;6.40;;;;;;;2.15;65.65;97736.06;130520;1258;107603;-91
2023/12/23 10:19:14;;;;;;;7.10;3.40;;;;;;;2.11;65.34;97712.30;130688;1262;107066;-90
2023/12/23 10:22:19;;;;;;;7.20;3.50;;;;;;;2.23;65.68;97731.30;130715;1257;107186;-89
2023/12/23 10:25:25;;;;;;;7.60;3.10;;;;;;;2.20;65.34;97745.52;130925;1257;106780;-88
2023/12/23 10:28:31;;;;;;;14.60;6.00;;;;;;;2.25;65.47;97726.38;130563;1258;107172;-91
2023/12/23 10:31:37;;;;;;;13.20;4.40;;;;;;;2.32;65.40;97722.17;130447;1258;107309;-88
2023/12/23 10:34:45;;;;;;;11.50;3.90;;;;;;;2.35;65.24;97720.20;130752;1257;106766;-88
2023/12/23 10:37:54;;;;;;;10.90;4.20;;;;;;;2.40;65.14;97728.73;130519;1261;107407;-88
2023/12/23 10:41:09;;;;;;;7.00;3.30;;;;;;;2.49;65.23;97721.80;130625;1262;106966;-88
2023/12/23 10:44:16;;;;;;;209.70;79.10;;;;;;;2.49;64.93;97721.92;130668;1258;108674;-90
2023/12/23 10:47:22;;;;;;;74.70;29.00;;;;;;;2.50;64.91;97729.37;130681;1258;107736;-91
2023/12/23 10:50:29;;;;;;;138.70;44.80;;;;;;;2.39;65.33;97720.59;130700;1261;107493;-87
2023/12/23 10:53:35;;;;;;;33.10;10.50;;;;;;;2.35;64.63;97726.20;130695;1259;107222;-88
2023/12/23 10:56:42;;;;;;;167.30;52.90;;;;;;;2.30;65.02;97725.34;130611;1261;106725;-89
2023/12/23 10:59:47;;;;;;;23.20;6.80;;;;;;;2.29;64.97;97727.57;130523;1261;107792;-88
2023/12/23 11:02:58;;;;;;;137.90;40.60;;;;;;;2.21;65.51;97724.73;130560;1261;108577;-90
2023/12/23 11:06:07;;;;;;;160.90;43.70;;;;;;;2.22;65.56;97715.71;130681;1261;107551;-91
2023/12/23 11:09:14;;;;;;;437.00;133.40;;;;;;;2.23;65.71;97714.30;130641;1258;108455;-90
2023/12/23 11:12:20;;;;;;;72.90;20.60;;;;;;;2.27;65.26;97717.20;130861;1257;106409;-90
2023/12/23 11:15:26;;;;;;;194.30;56.60;;;;;;;2.25;64.88;97713.30;130660;1261;106775;-88
2023/12/23 11:18:32;;;;;;;329.30;93.30;;;;;;;2.25;64.79;97719.88;131262;1257;106973;-89
2023/12/23 11:21:38;;;;;;;299.70;104.10;;;;;;;2.31;65.53;97716.48;130778;1261;108651;-86
2023/12/23 11:24:46;;;;;;;159.20;51.00;;;;;;;2.45;65.50;97704.85;130814;1261;108661;-86
2023/12/23 11:27:52;;;;;;;51.10;18.10;;;;;;;2.56;64.91;97710.48;130630;1259;108382;-85
2023/12/23 11:30:59;;;;;;;70.70;27.10;;;;;;;2.55;65.00;97709.73;130647;1261;105750;-87
2023/12/23 11:34:15;;;;;;;71.50;33.80;;;;;;;2.57;64.72;97709.49;131081;1259;107767;-88
2023/12/23 11:37:22;;;;;;;17.70;7.00;;;;;;;2.68;64.43;97706.19;131097;1257;108179;-90
2023/12/23 11:40:30;;;;;;;21.10;8.80;;;;;;;2.82;64.82;97691.40;130633;1258;107013;-89
2023/12/23 11:43:36;;;;;;;27.30;10.00;;;;;;;2.90;64.46;97688.26;130638;1261;108712;-89
2023/12/23 11:46:42;;;;;;;20.80;6.70;;;;;;;2.85;63.88;97694.69;130514;1261;107540;-90
2023/12/23 11:49:48;;;;;;;12.30;5.10;;;;;;;2.80;64.35;97697.55;130441;1261;108714;-90
2023/12/23 11:52:54;;;;;;;10.60;4.20;;;;;;;2.79;64.50;97691.84;130473;1261;107597;-89
2023/12/23 11:55:59;;;;;;;14.50;4.50;;;;;;;2.78;64.47;97695.32;130454;1262;108638;-88
2023/12/23 11:59:06;;;;;;;13.70;5.40;;;;;;;2.72;64.66;97693.85;130433;1258;108372;-89
2023/12/23 12:02:14;;;;;;;11.90;7.30;;;;;;;2.69;64.12;97690.06;130794;1259;107160;-87
2023/12/23 12:05:20;;;;;;;8.70;4.30;;;;;;;2.62;64.64;97686.84;130813;1264;108407;-88
2023/12/23 12:08:27;;;;;;;10.20;3.40;;;;;;;2.58;64.43;97683.43;130848;1259;107487;-87
2023/12/23 12:11:33;;;;;;;11.20;4.40;;;;;;;2.54;64.61;97685.36;130782;1261;106462;-91
2023/12/23 12:14:39;;;;;;;11.10;3.00;;;;;;;2.48;64.29;97691.13;130657;1259;107523;-89
2023/12/23 12:17:45;;;;;;;7.80;3.60;;;;;;;2.40;64.70;97684.28;130706;1261;106360;-89
2023/12/23 12:20:52;;;;;;;9.30;3.10;;;;;;;2.37;65.18;97674.08;130718;1259;106873;-92
2023/12/23 12:23:59;;;;;;;6.10;2.40;;;;;;;2.37;65.15;97671.10;130892;1259;107661;-87
2023/12/23 12:27:05;;;;;;;72.90;30.30;;;;;;;2.38;65.38;97675.56;130728;1259;106821;-88
2023/12/23 12:30:13;;;;;;;156.60;59.90;;;;;;;2.42;65.44;97671.30;130632;1260;107467;-86
2023/12/23 12:33:18;;;;;;;273.40;99.70;;;;;;;2.44;65.46;97672.34;130538;1261;105544;-89
2023/12/23 12:36:24;;;;;;;99.40;31.90;;;;;;;2.44;65.40;97676.48;130453;1260;107666;-90
2023/12/23 12:39:30;;;;;;;262.90;80.60;;;;;;;2.39;65.71;97682.51;130585;1261;107398;-92
2023/12/23 12:42:39;;;;;;;36.80;11.80;;;;;;;2.34;65.81;97696.09;130522;1258;106681;-91
2023/12/23 12:45:44;;;;;;;11.10;3.70;;;;;;;2.22;66.05;97732.68;130990;1258;107687;-89
2023/12/23 12:48:51;;;;;;;6.30;2.30;;;;;;;2.02;68.60;97746.23;130818;1261;106550;-88
2023/12/23 12:51:57;;;;;;;7.70;2.30;;;;;;;1.61;72.66;97762.23;130593;1257;105883;-91
2023/12/23 12:55:05;;;;;;;5.00;2.60;;;;;;;1.17;75.66;97756.48;130695;1258;107692;-86
2023/12/23 12:58:11;;;;;;;7.20;2.60;;;;;;;0.84;77.13;97758.39;130559;1271;107358;-86
2023/12/23 13:01:17;;;;;;;4.20;2.40;;;;;;;0.59;81.30;97779.19;130486;1259;107300;-85
2023/12/23 13:04:22;;;;;;;19.80;7.60;;;;;;;0.33;82.85;97783.09;130511;1264;107300;-88
2023/12/23 13:07:28;;;;;;;9.40;3.80;;;;;;;0.21;81.58;97780.65;130537;1262;107886;-87
2023/12/23 13:10:34;;;;;;;11.70;4.70;;;;;;;0.21;81.31;97775.55;130498;1262;107835;-83
2023/12/23 13:13:39;;;;;;;19.90;8.20;;;;;;;0.23;81.63;97787.40;130445;1259;107738;-83
2023/12/23 13:16:45;;;;;;;17.30;7.60;;;;;;;0.26;79.34;97798.69;130351;1264;106553;-87
2023/12/23 13:19:50;;;;;;;29.40;11.60;;;;;;;0.29;79.86;97811.15;130410;1264;106585;-88
2023/12/23 13:22:56;;;;;;;22.90;11.30;;;;;;;0.27;81.01;97811.15;130311;1263;109347;-85
2023/12/23 13:26:01;;;;;;;20.50;7.50;;;;;;;0.23;82.00;97809.83;130528;1261;108170;-84
2023/12/23 13:29:07;;;;;;;46.70;17.60;;;;;;;0.19;81.35;97808.94;130504;1262;106526;-86
2023/12/23 13:32:13;;;;;;;79.60;27.60;;;;;;;0.21;81.82;97808.73;130435;1274;108470;-82
2023/12/23 13:35:19;;;;;;;390.90;164.50;;;;;;;0.34;79.89;97806.63;130501;1259;109067;-87
2023/12/23 13:38:25;;;;;;;28.40;9.90;;;;;;;0.52;79.64;97806.29;130551;1259;106324;-85
2023/12/23 13:41:31;;;;;;;24.10;9.40;;;;;;;0.62;78.89;97812.70;131046;1261;106443;-87
2023/12/23 13:44:36;;;;;;;20.30;9.00;;;;;;;0.72;79.05;97814.80;130792;1259;106702;-85
2023/12/23 13:47:42;;;;;;;16.00;7.70;;;;;;;0.74;79.39;97809.92;130736;1261;106737;-84
2023/12/23 13:50:48;;;;;;;11.50;6.80;;;;;;;0.75;78.32;97812.59;130720;1261;107700;-84
2023/12/23 13:53:53;;;;;;;32.00;18.60;;;;;;;0.84;78.18;97813.54;130479;1261;107565;-87
2023/12/23 13:56:59;;;;;;;23.50;15.30;;;;;;;0.92;78.60;97820.42;130466;1261;108485;-86
2023/12/23 14:00:06;;;;;;;15.20;7.70;;;;;;;1.03;78.33;97815.96;130468;1259;108786;-83
2023/12/23 14:03:12;;;;;;;32.60;18.10;;;;;;;1.15;78.20;97820.54;130295;1263;108676;-84
2023/12/23 14:06:18;;;;;;;14.90;6.70;;;;;;;1.22;77.92;97843.05;130355;1259;108582;-83
2023/12/23 14:09:24;;;;;;;9.80;4.80;;;;;;;1.26;78.00;97856.31;130476;1275;107508;-82
2023/12/23 14:12:29;;;;;;;12.80;7.00;;;;;;;1.21;79.86;97858.33;130432;1264;108714;-84
2023/12/23 14:15:35;;;;;;;16.90;10.50;;;;;;;1.10;80.59;97859.74;130709;1264;106331;-84